Time;durP1;ratioP1;P1;durP2;ratioP2;P2;SDS_P1;SDS_P2;PMS_P1;PMS_P2;Temp;Humidity;BMP_temperature;BMP_pressure;BME280_temperature;BME280_humidity;BME280_pressure;Samples;Min_cycle;Max_cycle;Signal;HPM_P1;HPM_P2
2022/10/28 00:01:47;;;;;;;5.60;5.13;;;16.70;99.90;;;;;;5033865;28;20482;-81
2022/10/28 00:04:26;;;;;;;7.30;5.50;;;16.70;99.90;;;;;;5032294;28;20575;-82
2022/10/28 00:06:55;;;;;;;6.80;5.80;;;16.70;99.90;;;;;;5040381;28;20471;-79
2022/10/28 00:09:22;;;;;;;5.77;5.20;;;16.70;99.90;;;;;;5037653;28;20481;-83
2022/10/28 00:11:49;;;;;;;6.63;5.33;;;16.70;99.90;;;;;;5034192;28;20475;-83
2022/10/28 00:14:19;;;;;;;5.73;5.00;;;16.70;99.90;;;;;;5033324;28;20786;-79
2022/10/28 00:16:49;;;;;;;5.70;5.20;;;16.70;99.90;;;;;;5040307;28;20477;-80
2022/10/28 00:19:20;;;;;;;5.50;5.00;;;16.70;99.90;;;;;;5033222;28;20530;-84
2022/10/28 00:21:49;;;;;;;6.07;5.50;;;16.70;99.90;;;;;;5040300;28;20472;-80
2022/10/28 00:24:33;;;;;;;5.43;4.90;;;16.70;99.90;;;;;;5037967;28;20568;-83
2022/10/28 00:27:02;;;;;;;5.17;4.77;;;16.70;99.90;;;;;;5023814;28;20515;-80
2022/10/28 00:29:31;;;;;;;5.43;4.90;;;16.70;99.90;;;;;;5032842;28;20916;-80
2022/10/28 00:31:58;;;;;;;6.00;5.50;;;16.70;99.90;;;;;;5040430;28;20509;-81
2022/10/28 00:34:30;;;;;;;7.70;5.20;;;16.70;99.90;;;;;;5015158;28;20541;-80
2022/10/28 00:37:07;;;;;;;4.97;4.43;;;16.70;99.90;;;;;;5031769;28;20471;-84
2022/10/28 00:39:34;;;;;;;5.80;5.20;;;16.70;99.90;;;;;;5033046;28;20543;-84
2022/10/28 00:42:02;;;;;;;8.47;5.20;;;16.70;99.90;;;;;;5032686;28;20974;-85
2022/10/28 00:44:57;;;;;;;6.00;5.50;;;16.70;99.90;;;;;;5032907;28;20471;-85
2022/10/28 00:47:50;;;;;;;5.33;4.83;;;16.70;99.90;;;;;;5053023;28;20470;-84
2022/10/28 00:50:53;;;;;;;5.33;4.93;;;16.70;99.90;;;;;;5026638;28;20462;-80
2022/10/28 00:53:29;;;;;;;4.57;4.17;;;16.70;99.90;;;;;;5031018;28;20480;-80
2022/10/28 00:56:01;;;;;;;5.60;5.10;;;16.70;99.90;;;;;;5033029;28;20491;-80
2022/10/28 00:58:37;;;;;;;6.23;5.67;;;16.70;99.90;;;;;;5035941;28;20743;-79
2022/10/28 01:01:11;;;;;;;6.70;6.10;;;16.70;99.90;;;;;;5040708;28;20495;-81
2022/10/28 01:03:58;;;;;;;6.67;6.07;;;16.60;99.90;;;;;;5053858;28;20547;-85
2022/10/28 01:06:29;;;;;;;7.13;5.37;;;16.60;99.90;;;;;;5054556;28;20532;-79
2022/10/28 01:08:58;;;;;;;7.33;6.50;;;16.70;99.90;;;;;;5056439;28;20474;-84
2022/10/28 01:11:56;;;;;;;6.50;5.90;;;16.60;99.90;;;;;;5057893;28;20938;-81
2022/10/28 01:14:42;;;;;;;12.10;6.70;;;16.60;99.90;;;;;;5054313;28;20530;-80
2022/10/28 01:17:23;;;;;;;6.23;5.60;;;16.60;99.90;;;;;;5052395;28;20974;-81
2022/10/28 01:20:32;;;;;;;6.50;5.93;;;16.60;99.90;;;;;;5052039;28;20947;-80
2022/10/28 01:23:02;;;;;;;7.77;7.07;;;16.60;99.90;;;;;;5031671;28;21010;-79
2022/10/28 01:26:21;;;;;;;7.97;6.37;;;16.60;99.90;;;;;;5051517;28;20878;-83
2022/10/28 01:29:08;;;;;;;6.63;6.03;;;16.60;99.90;;;;;;5034974;28;20490;-84
2022/10/28 01:31:44;;;;;;;6.10;5.50;;;16.60;99.90;;;;;;5051796;28;20463;-79
2022/10/28 01:34:20;;;;;;;6.00;5.47;;;16.60;99.90;;;;;;5052177;28;20469;-80
2022/10/28 01:36:59;;;;;;;6.30;5.17;;;16.60;99.90;;;;;;5051809;28;20466;-85
2022/10/28 01:39:34;;;;;;;8.50;5.43;;;16.60;99.90;;;;;;5052356;28;20847;-80
2022/10/28 01:42:10;;;;;;;7.43;6.73;;;16.60;99.90;;;;;;5051659;28;20573;-85
2022/10/28 01:44:43;;;;;;;5.10;4.70;;;16.60;99.90;;;;;;5052866;28;20548;-84
2022/10/28 01:47:22;;;;;;;6.00;5.50;;;16.60;99.90;;;;;;5054964;28;20495;-84
2022/10/28 01:49:54;;;;;;;6.57;5.40;;;16.60;99.90;;;;;;5051164;28;20469;-84
2022/10/28 01:52:25;;;;;;;6.57;5.77;;;16.60;99.90;;;;;;5049871;28;21004;-84
2022/10/28 01:54:59;;;;;;;7.70;6.37;;;16.60;99.90;;;;;;5051544;28;20508;-85
2022/10/28 01:57:29;;;;;;;4.70;4.40;;;16.50;99.90;;;;;;5050425;28;21005;-84
2022/10/28 01:59:57;;;;;;;5.17;4.73;;;16.50;99.90;;;;;;5051603;28;20466;-85
2022/10/28 02:02:26;;;;;;;8.50;6.87;;;16.60;99.90;;;;;;5051795;28;20805;-80
2022/10/28 02:05:06;;;;;;;6.00;5.47;;;16.50;99.90;;;;;;5052350;28;20850;-80
2022/10/28 02:07:33;;;;;;;6.63;5.47;;;16.50;99.90;;;;;;5055331;28;20539;-84
2022/10/28 02:10:11;;;;;;;4.77;4.37;;;16.50;99.90;;;;;;5056752;28;20470;-84
2022/10/28 02:12:38;;;;;;;5.57;5.07;;;16.50;99.90;;;;;;5055580;28;20485;-80
2022/10/28 02:15:35;;;;;;;5.50;4.97;;;16.50;99.90;;;;;;5055625;28;20532;-80
2022/10/28 02:18:16;;;;;;;6.63;5.27;;;16.50;99.90;;;;;;5056043;28;20486;-85
2022/10/28 02:20:49;;;;;;;5.40;4.90;;;16.50;99.90;;;;;;5056205;28;20485;-85
2022/10/28 02:23:25;;;;;;;5.87;5.37;;;16.50;99.90;;;;;;5055256;28;20570;-79
2022/10/28 02:25:58;;;;;;;5.67;5.13;;;16.50;99.90;;;;;;5055627;28;20474;-79
2022/10/28 02:28:33;;;;;;;6.67;4.63;;;16.50;99.90;;;;;;5054557;28;20475;-79
2022/10/28 02:31:06;;;;;;;6.80;6.10;;;16.50;99.90;;;;;;5055299;28;20484;-79
2022/10/28 02:33:38;;;;;;;8.63;6.30;;;16.50;99.90;;;;;;5054656;28;20475;-79
2022/10/28 02:36:13;;;;;;;6.47;5.87;;;16.50;99.90;;;;;;5055390;28;20480;-79
2022/10/28 02:38:44;;;;;;;5.57;5.07;;;16.50;99.90;;;;;;5044032;28;20469;-84
2022/10/28 02:41:19;;;;;;;6.13;5.27;;;16.50;99.90;;;;;;5035800;28;20997;-80
2022/10/28 02:43:50;;;;;;;5.30;4.90;;;16.50;99.90;;;;;;5055664;28;20459;-85
2022/10/28 02:46:19;;;;;;;5.63;5.13;;;16.50;99.90;;;;;;5055375;28;20466;-79
2022/10/28 02:48:51;;;;;;;7.20;5.47;;;16.40;99.90;;;;;;5054486;28;20461;-79
2022/10/28 02:54:32;;;;;;;7.00;6.30;;;16.40;99.90;;;;;;4971034;28;20503;-85
2022/10/28 02:57:04;;;;;;;6.50;5.90;;;16.40;99.90;;;;;;5034137;28;21006;-81
2022/10/28 02:59:31;;;;;;;6.83;6.23;;;16.40;99.90;;;;;;5025022;28;20477;-85
2022/10/28 03:01:58;;;;;;;6.83;6.13;;;16.50;99.90;;;;;;5034900;28;20551;-86
2022/10/28 03:04:27;;;;;;;6.13;5.53;;;16.50;99.90;;;;;;5036343;28;20457;-85
2022/10/28 03:06:56;;;;;;;5.50;5.00;;;16.40;99.90;;;;;;5035241;28;20488;-81
2022/10/28 03:09:23;;;;;;;6.93;6.23;;;16.50;99.90;;;;;;5053930;28;20971;-80
2022/10/28 03:11:53;;;;;;;6.70;6.20;;;16.50;99.90;;;;;;5054723;28;20487;-85
2022/10/28 03:14:20;;;;;;;6.80;6.20;;;16.50;99.90;;;;;;5054886;28;20466;-85
2022/10/28 03:16:48;;;;;;;5.40;4.90;;;16.50;99.90;;;;;;5057570;28;20854;-85
2022/10/28 03:19:15;;;;;;;5.47;5.07;;;16.50;99.90;;;;;;5056285;28;20545;-85
2022/10/28 03:21:44;;;;;;;5.90;5.40;;;16.50;99.90;;;;;;5057888;28;20533;-85
2022/10/28 03:24:11;;;;;;;5.43;4.93;;;16.50;99.90;;;;;;5056414;28;20469;-85
2022/10/28 03:26:38;;;;;;;4.83;4.43;;;16.50;99.90;;;;;;5056437;28;20535;-85
2022/10/28 03:29:05;;;;;;;6.10;5.20;;;16.50;99.90;;;;;;5055481;28;20473;-80
2022/10/28 03:31:32;;;;;;;7.83;6.00;;;16.50;99.90;;;;;;5054423;28;21012;-81
2022/10/28 03:33:59;;;;;;;5.80;5.30;;;16.50;99.90;;;;;;5054575;28;20499;-79
2022/10/28 03:36:26;;;;;;;5.50;5.10;;;16.50;99.90;;;;;;5064036;28;20464;-84
2022/10/28 03:38:54;;;;;;;6.10;5.20;;;16.50;99.90;;;;;;5057510;28;20556;-84
2022/10/28 03:41:21;;;;;;;6.70;5.07;;;16.50;99.90;;;;;;5053381;28;20998;-79
2022/10/28 03:43:48;;;;;;;5.27;4.70;;;16.50;99.90;;;;;;5053859;28;20863;-80
2022/10/28 03:46:15;;;;;;;4.73;4.40;;;16.40;99.90;;;;;;5054304;28;20538;-80
2022/10/28 03:51:39;;;;;;;5.30;4.80;;;16.40;99.90;;;;;;5044138;28;20958;-85
2022/10/28 03:54:07;;;;;;;8.30;6.60;;;16.40;99.90;;;;;;5061315;28;20453;-84
2022/10/28 03:56:34;;;;;;;6.83;6.23;;;16.30;99.90;;;;;;5060172;28;20477;-85
2022/10/28 03:59:01;;;;;;;5.87;5.37;;;16.40;99.90;;;;;;5060260;28;20815;-81
2022/10/28 04:01:29;;;;;;;8.10;5.00;;;16.30;99.90;;;;;;5059694;28;20469;-84
2022/10/28 04:03:56;;;;;;;5.87;5.37;;;16.30;99.90;;;;;;5055504;28;20501;-85
2022/10/28 04:06:23;;;;;;;5.90;5.40;;;16.30;99.90;;;;;;5055757;28;20474;-85
2022/10/28 04:08:50;;;;;;;5.73;5.23;;;16.30;99.90;;;;;;5056781;28;20464;-84
2022/10/28 04:11:18;;;;;;;5.93;5.43;;;16.30;99.90;;;;;;5060540;28;20868;-80
2022/10/28 04:13:48;;;;;;;6.40;5.23;;;16.30;99.90;;;;;;5058097;28;20477;-85
2022/10/28 04:16:15;;;;;;;6.40;5.90;;;16.20;99.90;;;;;;5057317;28;20551;-80
2022/10/28 04:18:46;;;;;;;6.70;5.53;;;16.20;99.90;;;;;;5055827;28;20487;-79
2022/10/28 04:21:13;;;;;;;5.80;4.90;;;16.20;99.90;;;;;;5046688;28;20451;-80
2022/10/28 04:23:40;;;;;;;6.13;5.53;;;16.20;99.90;;;;;;5052914;28;20500;-79
2022/10/28 04:26:07;;;;;;;4.43;4.03;;;16.20;99.90;;;;;;5053448;28;20465;-80
2022/10/28 04:28:35;;;;;;;5.33;4.83;;;16.20;99.90;;;;;;5053318;28;20809;-80
2022/10/28 04:31:08;;;;;;;5.13;4.67;;;16.20;99.90;;;;;;5052706;28;20861;-81
2022/10/28 04:33:35;;;;;;;6.90;5.70;;;16.20;99.90;;;;;;5053596;28;20479;-80
2022/10/28 04:36:02;;;;;;;5.73;5.30;;;16.20;99.90;;;;;;5052934;28;20507;-84
2022/10/28 04:38:29;;;;;;;5.73;5.23;;;16.10;99.90;;;;;;5053662;28;20501;-80
2022/10/28 04:40:56;;;;;;;6.80;6.20;;;16.10;99.90;;;;;;5052194;28;20468;-80
2022/10/28 04:43:31;;;;;;;5.50;5.00;;;16.10;99.90;;;;;;5054465;28;20534;-85
2022/10/28 04:46:11;;;;;;;6.00;5.50;;;16.10;99.90;;;;;;5046388;28;20525;-80
2022/10/28 04:48:38;;;;;;;6.70;5.97;;;16.10;99.90;;;;;;5053319;28;20464;-80
2022/10/28 04:51:05;;;;;;;6.50;5.50;;;16.10;99.90;;;;;;5053284;28;20464;-85
2022/10/28 04:53:32;;;;;;;6.07;5.57;;;16.10;99.90;;;;;;5054912;28;20467;-85
2022/10/28 04:56:01;;;;;;;6.73;5.87;;;16.00;99.90;;;;;;5053943;28;20471;-84
2022/10/28 04:58:28;;;;;;;6.07;5.47;;;16.00;99.90;;;;;;5053302;28;20801;-79
2022/10/28 05:01:04;;;;;;;6.90;5.93;;;16.00;99.90;;;;;;5053144;28;20469;-84
2022/10/28 05:03:31;;;;;;;5.20;4.80;;;16.00;99.90;;;;;;5055555;28;20479;-85
2022/10/28 05:05:58;;;;;;;7.33;6.63;;;16.00;99.90;;;;;;5053148;28;20537;-80
2022/10/28 05:08:25;;;;;;;5.90;5.40;;;16.00;99.90;;;;;;5052827;28;20542;-80
2022/10/28 05:10:52;;;;;;;6.90;6.10;;;15.90;99.90;;;;;;5052790;28;20563;-79
2022/10/28 05:13:20;;;;;;;5.93;5.43;;;15.90;99.90;;;;;;5052227;28;20534;-79
2022/10/28 05:15:48;;;;;;;7.27;6.57;;;15.90;99.90;;;;;;5053406;28;20468;-85
2022/10/28 05:18:17;;;;;;;7.50;6.80;;;15.90;99.90;;;;;;5054842;28;20592;-79
2022/10/28 05:20:44;;;;;;;6.57;5.60;;;15.90;99.90;;;;;;5055056;28;20547;-80
2022/10/28 05:23:14;;;;;;;6.83;6.23;;;15.90;99.90;;;;;;5062067;28;20475;-85
2022/10/28 05:25:43;;;;;;;8.00;6.63;;;15.90;99.90;;;;;;5065906;28;20464;-82
2022/10/28 05:28:10;;;;;;;7.47;6.67;;;15.90;99.90;;;;;;5063626;28;20493;-84
2022/10/28 05:30:37;;;;;;;7.40;6.70;;;15.90;99.90;;;;;;5062512;28;20490;-79
2022/10/28 05:33:04;;;;;;;7.07;6.37;;;15.90;99.90;;;;;;5060170;28;20479;-84
2022/10/28 05:35:33;;;;;;;9.00;8.20;;;15.90;99.90;;;;;;5052451;28;20501;-86
2022/10/28 05:38:00;;;;;;;11.67;8.20;;;15.90;99.90;;;;;;5064106;28;20468;-79
2022/10/28 05:40:27;;;;;;;8.57;7.77;;;15.90;99.90;;;;;;5057308;28;20461;-83
2022/10/28 05:42:54;;;;;;;8.50;7.10;;;15.90;99.90;;;;;;5074344;28;20490;-84
2022/10/28 05:45:21;;;;;;;10.50;7.73;;;15.90;99.90;;;;;;5060508;28;20548;-80
2022/10/28 05:47:49;;;;;;;11.27;7.40;;;15.90;99.90;;;;;;5071519;28;20452;-85
2022/10/28 05:50:23;;;;;;;9.13;7.70;;;15.90;99.90;;;;;;5045078;28;20501;-85
2022/10/28 05:52:53;;;;;;;9.67;8.53;;;15.90;99.90;;;;;;5054643;28;20481;-84
2022/10/28 05:55:22;;;;;;;9.60;8.70;;;16.00;99.90;;;;;;5050891;28;20539;-84
2022/10/28 05:57:51;;;;;;;7.90;7.17;;;15.90;99.90;;;;;;5052468;28;20497;-83
2022/10/28 06:00:20;;;;;;;8.73;7.83;;;16.00;99.90;;;;;;5052351;28;20817;-84
2022/10/28 06:02:47;;;;;;;6.73;6.23;;;16.00;99.90;;;;;;5042970;28;21046;-80
2022/10/28 06:05:20;;;;;;;10.37;8.20;;;16.00;99.90;;;;;;5036067;28;20935;-80
2022/10/28 06:07:49;;;;;;;14.90;11.57;;;16.00;99.90;;;;;;5041230;28;20465;-80
2022/10/28 06:10:18;;;;;;;10.50;9.60;;;16.00;99.90;;;;;;5049298;28;20467;-84
2022/10/28 06:12:45;;;;;;;9.97;8.97;;;16.00;99.90;;;;;;5042873;28;20466;-84
2022/10/28 06:15:13;;;;;;;9.17;8.27;;;16.00;99.90;;;;;;5043393;28;20881;-79
2022/10/28 06:17:40;;;;;;;8.77;7.50;;;16.10;99.90;;;;;;5039840;28;20544;-83
2022/10/28 06:20:08;;;;;;;8.10;6.93;;;16.10;99.90;;;;;;5039657;28;20484;-85
2022/10/28 06:22:35;;;;;;;10.73;7.10;;;16.10;99.90;;;;;;5039520;28;20476;-86
2022/10/28 06:25:02;;;;;;;10.67;6.73;;;16.10;99.90;;;;;;5035896;28;20548;-80
2022/10/28 06:27:30;;;;;;;5.77;5.17;;;16.10;99.90;;;;;;5040519;28;20551;-85
2022/10/28 06:29:58;;;;;;;8.47;7.50;;;16.10;99.90;;;;;;5048128;28;20457;-84
2022/10/28 06:32:25;;;;;;;7.27;6.60;;;16.10;99.90;;;;;;5046349;28;20469;-85
2022/10/28 06:34:54;;;;;;;7.50;6.80;;;16.20;99.90;;;;;;5034554;28;20492;-86
2022/10/28 06:37:22;;;;;;;14.03;7.37;;;16.20;99.90;;;;;;5045076;28;20475;-85
2022/10/28 06:39:50;;;;;;;10.17;6.37;;;16.10;99.90;;;;;;5037779;28;20476;-80
2022/10/28 06:42:17;;;;;;;11.37;7.43;;;16.20;99.90;;;;;;5036135;28;20822;-84
2022/10/28 06:44:45;;;;;;;7.00;6.40;;;16.20;99.90;;;;;;5040108;28;20871;-84
2022/10/28 06:47:12;;;;;;;11.87;7.60;;;16.20;99.90;;;;;;5037173;28;20480;-79
2022/10/28 06:49:39;;;;;;;6.97;6.30;;;16.20;99.90;;;;;;5035655;28;20965;-81
2022/10/28 06:52:06;;;;;;;8.67;6.30;;;16.20;99.90;;;;;;5034753;28;20464;-85
2022/10/28 06:54:34;;;;;;;6.80;6.10;;;16.30;99.90;;;;;;5036861;28;20479;-85
2022/10/28 06:57:01;;;;;;;7.50;5.63;;;16.30;99.90;;;;;;5035917;28;20530;-85
2022/10/28 06:59:28;;;;;;;8.07;7.37;;;16.30;99.90;;;;;;5035843;28;20508;-80
2022/10/28 07:01:56;;;;;;;8.80;8.00;;;16.30;99.90;;;;;;5035202;28;20497;-85
2022/10/28 07:04:24;;;;;;;11.17;7.90;;;16.40;99.90;;;;;;5036683;28;20879;-85
2022/10/28 07:06:55;;;;;;;8.53;7.10;;;16.40;99.90;;;;;;5034139;28;20506;-80
2022/10/28 07:09:21;;;;;;;7.87;7.07;;;16.40;99.90;;;;;;5035057;28;20498;-85
2022/10/28 07:11:53;;;;;;;6.50;5.90;;;16.40;99.90;;;;;;5034328;28;20542;-79
2022/10/28 07:14:20;;;;;;;7.40;6.47;;;16.40;99.90;;;;;;5034945;28;20479;-79
2022/10/28 07:16:47;;;;;;;5.50;5.00;;;16.40;99.90;;;;;;5033797;28;20504;-80
2022/10/28 07:19:16;;;;;;;7.10;5.63;;;16.50;99.90;;;;;;5034191;28;20962;-84
2022/10/28 07:21:58;;;;;;;7.10;5.70;;;16.50;99.90;;;;;;5036361;28;20470;-85
2022/10/28 07:24:25;;;;;;;6.70;5.43;;;16.50;99.90;;;;;;5055989;28;20548;-80
2022/10/28 07:26:52;;;;;;;7.47;5.43;;;16.50;99.90;;;;;;5054274;28;20473;-79
2022/10/28 07:29:19;;;;;;;5.70;5.10;;;16.50;99.90;;;;;;5057205;28;20532;-85
2022/10/28 07:31:46;;;;;;;7.67;6.70;;;16.50;99.90;;;;;;5049600;28;20494;-85
2022/10/28 07:34:13;;;;;;;11.93;7.53;;;16.50;99.90;;;;;;5054396;28;20949;-84
2022/10/28 07:36:42;;;;;;;10.57;7.47;;;16.60;99.90;;;;;;5061715;28;20807;-80
2022/10/28 07:39:10;;;;;;;7.60;6.90;;;16.60;99.90;;;;;;5055877;28;20484;-80
2022/10/28 07:41:38;;;;;;;6.20;5.50;;;16.60;99.90;;;;;;5054704;28;21015;-79
2022/10/28 07:44:05;;;;;;;7.13;5.23;;;16.70;99.90;;;;;;5055474;28;20496;-79
2022/10/28 07:46:33;;;;;;;7.70;5.77;;;16.80;99.90;;;;;;5055171;28;20484;-79
2022/10/28 07:49:00;;;;;;;7.83;5.87;;;16.80;99.90;;;;;;5055694;28;20486;-79
2022/10/28 07:51:28;;;;;;;7.20;6.40;;;16.80;99.90;;;;;;5057093;28;21021;-79
2022/10/28 07:53:57;;;;;;;6.27;5.77;;;16.90;99.90;;;;;;5057231;28;20465;-81
2022/10/28 07:56:58;;;;;;;8.40;6.00;;;16.90;99.90;;;;;;5057938;28;20480;-80
2022/10/28 08:02:33;;;;;;;5.87;5.27;;;17.00;99.90;;;;;;5036762;28;20518;-79
2022/10/28 08:05:01;;;;;;;9.47;5.83;;;17.10;99.90;;;;;;5069428;28;20474;-80
2022/10/28 08:07:28;;;;;;;10.40;7.70;;;17.10;99.90;;;;;;5068099;28;20503;-79
2022/10/28 08:10:52;;;;;;;7.57;6.80;;;17.20;99.90;;;;;;5075034;28;20494;-79
2022/10/28 08:13:22;;;;;;;6.33;5.60;;;17.30;99.90;;;;;;5055417;28;20454;-79
2022/10/28 08:15:52;;;;;;;6.83;5.80;;;17.40;99.90;;;;;;5071510;28;20467;-80
2022/10/28 08:18:20;;;;;;;7.47;6.70;;;17.40;99.90;;;;;;5068268;28;20471;-84
2022/10/28 08:20:48;;;;;;;7.80;6.83;;;17.50;99.90;;;;;;5070612;28;20528;-80
2022/10/28 08:23:15;;;;;;;7.10;6.40;;;17.50;99.90;;;;;;5066950;28;20485;-80
2022/10/28 08:25:49;;;;;;;7.70;6.20;;;17.50;99.90;;;;;;5064819;28;20845;-79
2022/10/28 08:28:16;;;;;;;7.77;5.60;;;17.50;99.90;;;;;;5066204;28;20471;-84
2022/10/28 08:31:25;;;;;;;8.80;6.10;;;17.60;99.90;;;;;;5048427;28;20534;-80
2022/10/28 08:33:55;;;;;;;7.73;5.37;;;17.60;99.90;;;;;;5053059;28;20474;-78
2022/10/28 08:36:22;;;;;;;8.63;6.83;;;17.70;99.90;;;;;;5056816;28;20472;-79
2022/10/28 08:38:50;;;;;;;7.07;5.53;;;17.80;99.90;;;;;;5058924;28;20471;-84
2022/10/28 08:41:44;;;;;;;8.50;7.60;;;17.80;99.90;;;;;;5060813;28;20474;-84
2022/10/28 08:44:34;;;;;;;10.10;6.60;;;17.80;99.90;;;;;;5060857;28;20471;-84
2022/10/28 08:47:16;;;;;;;6.70;6.10;;;17.90;99.90;;;;;;5063008;28;20952;-83
2022/10/28 08:49:48;;;;;;;7.50;6.07;;;18.00;99.90;;;;;;5059777;28;20529;-84
2022/10/28 08:52:27;;;;;;;8.20;7.10;;;18.00;99.90;;;;;;5057625;28;20475;-84
2022/10/28 08:55:02;;;;;;;7.50;6.70;;;18.00;99.90;;;;;;5059191;28;20813;-79
2022/10/28 08:57:36;;;;;;;9.47;7.07;;;18.00;99.90;;;;;;5057174;28;20468;-80
2022/10/28 09:00:07;;;;;;;7.00;5.80;;;18.10;99.90;;;;;;5056858;28;20479;-84
2022/10/28 09:02:48;;;;;;;7.43;6.60;;;18.10;99.90;;;;;;5055411;28;20474;-84
2022/10/28 09:05:23;;;;;;;7.13;5.80;;;18.10;99.90;;;;;;5055024;28;20544;-81
2022/10/28 09:07:50;;;;;;;6.50;5.90;;;18.10;99.90;;;;;;5056866;28;20975;-84
2022/10/28 09:10:21;;;;;;;7.07;6.37;;;18.20;99.90;;;;;;5059226;28;20990;-85
2022/10/28 09:13:01;;;;;;;8.60;7.80;;;18.20;99.90;;;;;;5056103;28;20463;-85
2022/10/28 09:15:43;;;;;;;8.53;7.03;;;18.20;99.90;;;;;;5055788;28;20485;-85
2022/10/28 09:18:18;;;;;;;8.70;7.43;;;18.20;99.90;;;;;;5058457;28;20471;-85
2022/10/28 09:21:06;;;;;;;8.10;6.30;;;18.20;99.90;;;;;;5057881;28;20930;-84
2022/10/28 09:23:38;;;;;;;9.23;5.70;;;18.20;99.90;;;;;;5059007;28;20957;-85
2022/10/28 09:26:19;;;;;;;7.90;5.47;;;18.20;99.90;;;;;;5057943;28;20479;-85
2022/10/28 09:28:56;;;;;;;5.60;5.00;;;18.20;99.90;;;;;;5058114;28;20532;-85
2022/10/28 09:31:30;;;;;;;7.50;4.80;;;18.30;99.90;;;;;;5047768;28;20964;-86
2022/10/28 09:34:10;;;;;;;8.40;6.10;;;18.40;99.90;;;;;;5059390;28;20459;-81
2022/10/28 09:36:44;;;;;;;8.23;5.73;;;18.40;99.90;;;;;;5059395;28;20482;-84
2022/10/28 09:39:17;;;;;;;9.40;6.50;;;18.40;99.90;;;;;;5059043;28;20538;-80
2022/10/28 09:42:03;;;;;;;7.77;6.23;;;18.50;99.90;;;;;;5051123;28;20467;-84
2022/10/28 09:47:34;;;;;;;8.07;6.30;;;18.60;99.90;;;;;;5056881;28;20470;-85
2022/10/28 09:50:16;;;;;;;6.53;5.83;;;18.70;99.90;;;;;;5051225;28;20524;-80
2022/10/28 09:52:55;;;;;;;6.17;5.57;;;18.70;99.90;;;;;;5059045;28;20456;-79
2022/10/28 09:55:24;;;;;;;6.27;5.10;;;18.70;99.90;;;;;;5057325;28;20475;-78
2022/10/28 09:57:54;;;;;;;7.70;5.20;;;18.70;99.90;;;;;;5048897;28;20521;-80
2022/10/28 10:00:21;;;;;;;7.00;6.30;;;18.80;99.90;;;;;;5057169;28;20478;-80
2022/10/28 10:02:56;;;;;;;9.40;6.70;;;18.80;99.90;;;;;;5058426;28;20824;-80
2022/10/28 10:05:23;;;;;;;7.17;6.03;;;18.80;99.90;;;;;;5058133;28;20482;-79
2022/10/28 10:07:56;;;;;;;6.30;5.40;;;18.90;99.90;;;;;;5057539;28;20471;-79
2022/10/28 10:10:26;;;;;;;6.23;4.43;;;19.00;99.90;;;;;;5048513;28;20467;-85
2022/10/28 10:12:59;;;;;;;6.40;4.80;;;19.00;99.90;;;;;;5058316;28;20546;-84
2022/10/28 10:15:32;;;;;;;6.70;4.60;;;19.10;99.90;;;;;;5058772;28;20551;-85
2022/10/28 10:18:01;;;;;;;5.07;4.67;;;19.20;99.90;;;;;;5057478;28;20451;-85
2022/10/28 10:20:45;;;;;;;9.93;5.20;;;19.20;99.90;;;;;;5060299;28;20519;-85
2022/10/28 10:23:27;;;;;;;6.80;5.10;;;19.30;99.90;;;;;;5061014;28;20523;-81
2022/10/28 10:25:57;;;;;;;4.70;4.30;;;19.30;99.90;;;;;;5057744;28;20467;-79
2022/10/28 10:28:28;;;;;;;5.20;4.70;;;19.40;99.90;;;;;;5045897;28;20463;-79
2022/10/28 10:31:21;;;;;;;5.57;4.60;;;19.40;99.90;;;;;;5056898;28;20596;-79
2022/10/28 10:33:51;;;;;;;5.80;4.40;;;19.50;99.90;;;;;;5056368;28;20487;-80
2022/10/28 10:36:20;;;;;;;6.03;4.40;;;19.50;99.90;;;;;;5055920;28;20463;-80
2022/10/28 10:38:53;;;;;;;6.10;4.90;;;19.50;99.90;;;;;;5058764;28;20478;-85
2022/10/28 10:41:36;;;;;;;6.03;4.60;;;19.60;99.90;;;;;;5058418;28;20932;-79
2022/10/28 10:44:33;;;;;;;7.17;5.20;;;19.60;99.90;;;;;;5045646;28;20471;-84
2022/10/28 10:47:21;;;;;;;4.93;4.50;;;19.60;99.90;;;;;;5061372;28;20474;-79
2022/10/28 10:49:50;;;;;;;7.60;4.40;;;19.70;99.90;;;;;;5060956;28;20536;-80
2022/10/28 10:52:24;;;;;;;6.80;4.63;;;19.70;99.90;;;;;;5064221;28;20495;-79
2022/10/28 10:55:20;;;;;;;5.20;3.90;;;19.80;99.90;;;;;;5066411;28;20471;-84
2022/10/28 10:57:48;;;;;;;5.67;4.63;;;19.80;99.90;;;;;;5060248;28;20861;-79
2022/10/28 11:00:22;;;;;;;6.87;4.10;;;19.80;99.90;;;;;;5061298;28;20539;-83
2022/10/28 11:02:50;;;;;;;4.70;3.90;;;19.80;99.90;;;;;;5062963;28;20507;-79
2022/10/28 11:05:22;;;;;;;4.70;4.10;;;19.90;99.90;;;;;;5057936;28;20468;-84
2022/10/28 11:07:51;;;;;;;3.93;3.60;;;19.90;99.90;;;;;;5058132;28;20460;-84
2022/10/28 11:10:25;;;;;;;8.40;4.07;;;20.00;99.90;;;;;;5055833;28;20982;-79
2022/10/28 11:12:56;;;;;;;5.67;4.33;;;20.00;99.90;;;;;;5055782;28;20503;-84
2022/10/28 11:15:30;;;;;;;6.30;4.03;;;20.10;99.90;;;;;;5055400;28;20905;-84
2022/10/28 11:18:00;;;;;;;7.80;4.20;;;20.10;99.90;;;;;;5055545;28;20580;-84
2022/10/28 11:20:31;;;;;;;6.50;4.40;;;20.20;99.90;;;;;;5055458;28;20521;-85
2022/10/28 11:23:10;;;;;;;3.90;2.93;;;20.20;99.90;;;;;;5054053;28;20503;-85
2022/10/28 11:25:41;;;;;;;7.53;4.27;;;20.20;99.90;;;;;;5054516;28;20471;-85
2022/10/28 11:28:37;;;;;;;5.27;4.40;;;20.20;99.90;;;;;;5053770;28;20491;-85
2022/10/28 11:31:32;;;;;;;4.27;3.87;;;20.30;99.90;;;;;;5047315;28;20463;-85
2022/10/28 11:34:17;;;;;;;6.40;4.60;;;20.30;99.90;;;;;;5044411;28;20493;-80
2022/10/28 11:36:52;;;;;;;10.27;5.53;;;20.30;99.90;;;;;;5053733;28;20515;-84
2022/10/28 11:39:24;;;;;;;6.90;4.00;;;20.30;99.90;;;;;;5055556;28;20452;-85
2022/10/28 11:42:08;;;;;;;5.13;4.60;;;20.30;99.90;;;;;;5036094;28;20547;-85
2022/10/28 11:44:48;;;;;;;8.23;4.83;;;20.30;99.90;;;;;;5053915;28;20458;-80
2022/10/28 11:47:36;;;;;;;9.13;5.23;;;20.30;99.90;;;;;;5053425;28;20530;-80
2022/10/28 11:50:23;;;;;;;8.63;4.33;;;20.30;99.90;;;;;;5053037;28;20478;-80
2022/10/28 11:53:18;;;;;;;7.33;4.87;;;20.30;99.90;;;;;;5042978;28;20577;-80
2022/10/28 11:55:55;;;;;;;5.57;3.50;;;20.30;99.90;;;;;;5044759;28;20459;-79
2022/10/28 11:58:33;;;;;;;3.60;3.27;;;20.30;99.90;;;;;;5054021;28;20496;-80
2022/10/28 12:01:12;;;;;;;7.97;4.43;;;20.30;99.90;;;;;;5057964;28;20464;-80
2022/10/28 12:04:18;;;;;;;6.83;3.70;;;20.40;99.90;;;;;;5057299;28;21007;-79
2022/10/28 12:10:08;;;;;;;3.67;3.40;;;20.30;99.90;;;;;;5026757;28;20474;-85
2022/10/28 12:12:44;;;;;;;5.80;5.20;;;20.30;99.90;;;;;;5057577;28;20589;-85
2022/10/28 12:15:19;;;;;;;5.50;4.70;;;20.30;99.90;;;;;;5058976;28;20557;-85
2022/10/28 12:17:52;;;;;;;4.50;4.10;;;20.30;99.90;;;;;;5057323;28;20533;-80
2022/10/28 12:20:24;;;;;;;4.60;4.10;;;20.30;99.90;;;;;;5054832;28;20462;-79
2022/10/28 12:22:54;;;;;;;6.30;4.60;;;20.40;99.90;;;;;;5056075;28;20465;-79
2022/10/28 12:25:25;;;;;;;8.40;4.87;;;20.40;99.90;;;;;;5046670;28;20484;-78
2022/10/28 12:27:58;;;;;;;5.83;3.50;;;20.40;99.90;;;;;;5045465;28;20525;-80
2022/10/28 12:30:32;;;;;;;8.20;4.23;;;20.40;99.90;;;;;;5045101;28;20468;-80
2022/10/28 12:33:19;;;;;;;4.50;4.10;;;20.40;99.90;;;;;;5028802;28;20474;-79
2022/10/28 12:35:51;;;;;;;5.07;3.50;;;20.40;99.90;;;;;;5053220;28;20467;-81
2022/10/28 12:38:41;;;;;;;5.90;4.60;;;20.40;99.90;;;;;;5043713;28;20569;-81
2022/10/28 12:41:15;;;;;;;5.47;3.57;;;20.40;99.90;;;;;;5064353;28;20453;-85
2022/10/28 12:43:51;;;;;;;7.17;3.77;;;20.40;99.90;;;;;;5070504;28;20478;-85
2022/10/28 12:46:30;;;;;;;5.47;4.97;;;20.30;99.90;;;;;;5056761;28;20487;-84
2022/10/28 12:49:03;;;;;;;8.30;4.50;;;20.30;99.90;;;;;;5035644;28;20533;-78
2022/10/28 12:51:37;;;;;;;7.10;4.90;;;20.30;99.90;;;;;;5034695;28;20511;-85
2022/10/28 12:54:18;;;;;;;12.10;6.27;;;20.30;99.90;;;;;;5053695;28;20472;-85
2022/10/28 12:56:51;;;;;;;8.73;4.90;;;20.20;99.90;;;;;;5049308;28;20497;-85
2022/10/28 12:59:27;;;;;;;5.47;4.67;;;20.20;99.90;;;;;;5048204;28;20478;-85
2022/10/28 13:02:00;;;;;;;7.00;5.63;;;20.30;99.90;;;;;;5047641;28;20464;-85
2022/10/28 13:04:28;;;;;;;7.33;4.30;;;20.20;99.90;;;;;;5062429;28;20453;-85
2022/10/28 13:07:25;;;;;;;7.10;4.63;;;20.20;99.90;;;;;;5056918;28;20487;-85
2022/10/28 13:10:02;;;;;;;4.20;3.90;;;20.30;99.90;;;;;;5053391;28;20490;-85
2022/10/28 13:16:32;;;;;;;3.70;3.40;;;20.40;99.90;;;;;;5050739;28;20497;-85
2022/10/28 13:19:38;;;;;;;3.20;2.90;;;20.40;99.90;;;;;;5062545;28;20507;-84
2022/10/28 13:22:40;;;;;;;5.03;4.60;;;20.40;99.90;;;;;;4947057;28;20570;-79
2022/10/28 13:25:23;;;;;;;5.80;3.90;;;20.40;99.90;;;;;;4936136;29;20480;-79
2022/10/28 13:27:57;;;;;;;5.17;3.70;;;20.40;99.90;;;;;;5038403;28;20463;-83
2022/10/28 13:30:25;;;;;;;4.47;4.07;;;20.40;99.90;;;;;;5066190;28;20473;-85
2022/10/28 13:33:09;;;;;;;4.27;3.53;;;20.40;99.90;;;;;;5066441;28;20472;-83
2022/10/28 13:35:40;;;;;;;8.23;3.93;;;20.40;99.90;;;;;;5061932;28;20464;-84
2022/10/28 13:38:19;;;;;;;6.10;4.60;;;20.40;99.90;;;;;;5062433;28;20664;-84